Time;durP1;ratioP1;P1;durP2;ratioP2;P2;SDS_P1;SDS_P2;PMS_P1;PMS_P2;Temp;Humidity;BMP_temperature;BMP_pressure;BME280_temperature;BME280_humidity;BME280_pressure;Samples;Min_cycle;Max_cycle;Signal;HPM_P1;HPM_P2
2023/03/27 00:00:57;;;;;;;7.43;2.45;;;6.60;94.60;;;;;;5036873;28;20029;-65
2023/03/27 00:03:24;;;;;;;6.85;1.42;;;6.60;94.60;;;;;;5037415;28;20045;-66
2023/03/27 00:05:59;;;;;;;6.88;1.40;;;6.60;94.60;;;;;;5038008;28;20120;-65
2023/03/27 00:08:25;;;;;;;5.80;1.60;;;6.50;94.70;;;;;;5036807;28;20052;-65
2023/03/27 00:10:52;;;;;;;6.43;1.60;;;6.40;95.00;;;;;;5038422;28;20098;-65
2023/03/27 00:13:18;;;;;;;3.10;1.10;;;6.30;95.10;;;;;;5036928;28;20037;-65
2023/03/27 00:15:45;;;;;;;7.75;1.25;;;6.20;95.10;;;;;;5037329;28;20033;-65
2023/03/27 00:18:12;;;;;;;7.38;1.02;;;6.20;95.20;;;;;;5036781;28;20067;-65
2023/03/27 00:20:38;;;;;;;2.40;1.10;;;6.20;95.30;;;;;;5036922;28;20024;-65
2023/03/27 00:23:05;;;;;;;6.13;1.30;;;6.20;95.60;;;;;;5036559;28;20393;-65
2023/03/27 00:25:32;;;;;;;4.47;1.20;;;6.10;95.50;;;;;;5035078;28;20041;-65
2023/03/27 00:27:59;;;;;;;5.25;1.17;;;6.10;95.70;;;;;;5036583;28;20033;-66
2023/03/27 00:30:27;;;;;;;6.78;1.20;;;6.10;95.60;;;;;;5037206;28;20035;-65
2023/03/27 00:32:57;;;;;;;7.72;1.10;;;6.10;95.70;;;;;;5035946;28;20076;-65
2023/03/27 00:35:24;;;;;;;8.05;1.10;;;6.10;95.80;;;;;;5019409;28;20115;-65
2023/03/27 00:37:51;;;;;;;2.92;0.82;;;6.10;95.90;;;;;;5035263;28;20049;-65
2023/03/27 00:40:16;;;;;;;5.60;1.63;;;6.00;96.00;;;;;;5037026;28;20881;-65
2023/03/27 00:42:47;;;;;;;2.95;1.00;;;6.10;96.20;;;;;;5036475;28;20032;-66
2023/03/27 00:45:33;;;;;;;6.28;1.30;;;6.00;96.00;;;;;;5018950;28;20033;-65
2023/03/27 00:48:03;;;;;;;3.72;1.00;;;6.00;96.10;;;;;;5037005;28;20615;-65
2023/03/27 00:50:38;;;;;;;2.90;1.00;;;6.00;96.20;;;;;;5019999;28;20125;-65
2023/03/27 00:53:10;;;;;;;0.90;0.55;;;6.00;96.30;;;;;;5018915;28;20652;-65
2023/03/27 00:55:40;;;;;;;4.05;1.20;;;6.00;96.20;;;;;;5019128;28;20037;-66
2023/03/27 00:58:32;;;;;;;3.75;1.10;;;6.00;96.20;;;;;;5019345;28;20714;-65
2023/03/27 01:00:58;;;;;;;8.00;0.90;;;6.00;95.90;;;;;;5036845;28;20039;-65
2023/03/27 01:03:29;;;;;;;2.85;0.75;;;6.00;96.10;;;;;;5018915;28;20396;-64
2023/03/27 01:05:59;;;;;;;1.75;0.80;;;6.00;96.20;;;;;;5019812;28;20037;-65
2023/03/27 01:08:28;;;;;;;1.42;0.77;;;6.00;96.40;;;;;;5019644;28;20060;-65
2023/03/27 01:11:26;;;;;;;2.72;0.93;;;6.00;96.40;;;;;;5019463;28;20032;-64
2023/03/27 01:14:27;;;;;;;2.75;0.70;;;6.00;96.40;;;;;;5010081;28;20037;-65
2023/03/27 01:17:01;;;;;;;4.43;1.00;;;6.00;96.50;;;;;;5030705;28;20033;-65
2023/03/27 01:19:34;;;;;;;3.65;1.00;;;6.00;96.60;;;;;;5036121;28;20068;-64
2023/03/27 01:22:08;;;;;;;2.95;1.23;;;6.00;96.60;;;;;;5017411;28;20033;-65
2023/03/27 01:25:09;;;;;;;1.40;0.70;;;6.00;96.60;;;;;;5019200;28;20025;-65
2023/03/27 01:28:18;;;;;;;3.28;1.40;;;6.00;96.60;;;;;;5016443;28;20037;-65
2023/03/27 01:31:06;;;;;;;5.07;1.10;;;6.00;96.60;;;;;;5006684;28;20025;-65
2023/03/27 01:33:53;;;;;;;8.38;0.80;;;6.00;96.70;;;;;;5038108;28;20079;-65
2023/03/27 01:36:47;;;;;;;1.23;0.65;;;5.90;96.80;;;;;;5020170;28;20723;-65
2023/03/27 01:39:55;;;;;;;3.25;1.00;;;6.00;96.60;;;;;;5034884;28;20040;-64
2023/03/27 01:42:35;;;;;;;1.92;0.77;;;6.00;96.50;;;;;;5019572;28;20025;-65
2023/03/27 01:45:17;;;;;;;2.33;0.77;;;6.00;96.50;;;;;;5019257;28;20040;-64
2023/03/27 01:47:53;;;;;;;3.80;0.90;;;6.00;96.60;;;;;;5037269;28;20029;-64
2023/03/27 01:50:28;;;;;;;3.63;1.08;;;6.00;96.50;;;;;;5039543;28;20152;-65
2023/03/27 01:53:11;;;;;;;1.75;1.25;;;6.00;96.60;;;;;;5021153;28;20036;-65
2023/03/27 01:55:42;;;;;;;2.90;1.23;;;5.90;96.60;;;;;;5021892;28;20029;-65
2023/03/27 01:58:16;;;;;;;5.07;0.93;;;5.90;96.40;;;;;;5019742;28;20033;-66
2023/03/27 02:00:46;;;;;;;0.70;0.70;;;5.90;96.50;;;;;;5019827;28;20071;-64
2023/03/27 02:03:38;;;;;;;2.92;0.73;;;6.00;96.60;;;;;;5020691;28;20064;-65
2023/03/27 02:06:37;;;;;;;2.25;0.75;;;6.00;96.90;;;;;;5035985;28;20103;-65
2023/03/27 02:09:07;;;;;;;4.57;1.17;;;6.10;96.90;;;;;;5029421;28;20025;-64
2023/03/27 02:11:48;;;;;;;7.43;1.55;;;6.10;96.70;;;;;;5039247;28;20044;-65
2023/03/27 02:14:29;;;;;;;3.17;0.98;;;6.10;96.60;;;;;;5039345;28;20400;-65
2023/03/27 02:17:02;;;;;;;4.05;1.02;;;6.10;96.60;;;;;;5021657;28;20071;-65
2023/03/27 02:19:34;;;;;;;3.22;1.00;;;6.20;96.90;;;;;;5019002;28;20064;-64
2023/03/27 02:22:00;;;;;;;2.60;0.70;;;6.20;97.20;;;;;;5012184;28;20053;-65
2023/03/27 02:24:27;;;;;;;2.38;1.08;;;6.20;96.80;;;;;;5021958;28;20032;-65
2023/03/27 02:27:04;;;;;;;1.83;0.82;;;6.20;96.90;;;;;;5020798;28;20067;-65
2023/03/27 02:29:39;;;;;;;3.60;1.20;;;6.20;97.00;;;;;;5007756;28;20033;-65
2023/03/27 02:32:19;;;;;;;1.75;0.80;;;6.20;97.00;;;;;;5018750;28;20543;-64
2023/03/27 02:34:57;;;;;;;2.78;1.00;;;6.10;96.90;;;;;;5020751;28;20099;-65
2023/03/27 02:37:42;;;;;;;2.15;1.10;;;6.20;96.90;;;;;;5021679;28;20537;-65
2023/03/27 02:40:58;;;;;;;2.75;0.93;;;6.10;97.00;;;;;;5039857;28;20950;-65
2023/03/27 02:43:51;;;;;;;1.50;0.88;;;6.10;97.10;;;;;;4955889;28;20045;-65
2023/03/27 02:46:39;;;;;;;7.32;0.90;;;6.10;96.90;;;;;;5021092;28;20028;-65
2023/03/27 02:49:12;;;;;;;2.45;0.90;;;6.10;97.00;;;;;;5022088;28;20135;-65
2023/03/27 02:51:48;;;;;;;2.42;1.10;;;6.10;96.70;;;;;;5033988;28;20036;-64
2023/03/27 02:54:21;;;;;;;2.75;1.23;;;6.00;96.60;;;;;;5021638;28;20032;-65
2023/03/27 02:57:09;;;;;;;2.85;0.80;;;6.00;96.80;;;;;;5021280;28;20160;-65
2023/03/27 03:00:24;;;;;;;3.47;1.00;;;5.90;96.70;;;;;;5037717;28;20037;-65
2023/03/27 03:03:07;;;;;;;2.15;1.10;;;6.00;97.00;;;;;;5020731;28;20040;-64
2023/03/27 03:05:35;;;;;;;1.60;0.90;;;5.90;96.90;;;;;;5020736;28;20786;-64
2023/03/27 03:08:02;;;;;;;4.57;0.90;;;5.90;97.00;;;;;;5021060;28;20108;-64
2023/03/27 03:10:28;;;;;;;2.72;0.82;;;5.90;96.90;;;;;;5021811;28;20545;-64
2023/03/27 03:12:56;;;;;;;1.63;0.75;;;5.90;96.90;;;;;;5038267;28;20429;-64
2023/03/27 03:15:22;;;;;;;3.00;1.00;;;5.90;97.00;;;;;;5019443;28;20025;-65
2023/03/27 03:17:47;;;;;;;2.15;1.20;;;5.80;97.00;;;;;;5020955;28;20135;-65
2023/03/27 03:20:14;;;;;;;3.28;1.15;;;5.70;96.90;;;;;;5039069;28;20088;-65
2023/03/27 03:22:40;;;;;;;2.63;1.00;;;5.70;96.80;;;;;;5017363;28;20397;-65
2023/03/27 03:25:09;;;;;;;1.30;1.10;;;5.50;96.80;;;;;;5019229;28;20029;-64
2023/03/27 03:27:36;;;;;;;1.13;1.00;;;5.40;96.90;;;;;;5020286;28;20335;-65
2023/03/27 03:30:08;;;;;;;2.78;1.10;;;5.30;97.00;;;;;;5020579;28;20029;-65
2023/03/27 03:32:42;;;;;;;1.17;0.82;;;5.20;97.00;;;;;;5020626;28;20025;-65
2023/03/27 03:35:08;;;;;;;2.15;1.08;;;5.10;97.00;;;;;;5018576;28;20036;-65
2023/03/27 03:37:37;;;;;;;3.38;1.00;;;5.00;97.20;;;;;;5020018;28;20075;-65
2023/03/27 03:40:10;;;;;;;1.38;0.93;;;4.90;97.30;;;;;;5023542;28;20098;-65
2023/03/27 03:42:47;;;;;;;4.30;1.13;;;4.80;97.10;;;;;;5036307;28;20041;-64
2023/03/27 03:45:13;;;;;;;;;;;4.70;97.20;;;;;;5020085;28;20088;-65
2023/03/27 03:47:38;;;;;;;6.00;1.07;;;4.60;97.10;;;;;;5035874;28;20006;-65
2023/03/27 03:50:05;;;;;;;1.73;0.75;;;4.50;97.00;;;;;;5021229;28;20944;-65
2023/03/27 03:52:31;;;;;;;1.40;0.70;;;4.40;97.00;;;;;;5019931;28;20033;-65
2023/03/27 03:54:57;;;;;;;2.15;0.80;;;4.40;97.00;;;;;;5019806;28;20025;-65
2023/03/27 03:57:23;;;;;;;0.85;0.73;;;4.30;97.30;;;;;;5035145;28;20040;-65
2023/03/27 04:00:07;;;;;;;3.33;0.90;;;4.30;97.20;;;;;;5019724;28;20578;-65
2023/03/27 04:02:53;;;;;;;1.30;0.60;;;4.20;97.10;;;;;;5018986;28;20110;-65
2023/03/27 04:05:20;;;;;;;0.95;0.63;;;4.10;97.10;;;;;;5019502;28;20109;-64
2023/03/27 04:07:50;;;;;;;1.17;0.95;;;4.00;97.10;;;;;;5035004;28;20171;-64
2023/03/27 04:10:42;;;;;;;3.35;0.98;;;3.90;97.00;;;;;;5036344;28;20513;-64
2023/03/27 04:13:17;;;;;;;2.13;0.70;;;3.90;97.10;;;;;;5021226;28;20024;-64
2023/03/27 04:15:54;;;;;;;1.52;0.70;;;3.80;97.10;;;;;;5015859;28;20877;-65
2023/03/27 04:18:31;;;;;;;0.73;0.60;;;3.80;97.30;;;;;;5021098;28;20033;-65
2023/03/27 04:21:00;;;;;;;1.13;0.70;;;3.70;97.30;;;;;;5034700;28;20032;-65
2023/03/27 04:23:29;;;;;;;1.00;0.77;;;3.70;97.30;;;;;;5021088;28;20962;-64
2023/03/27 04:25:59;;;;;;;0.82;0.65;;;3.70;97.20;;;;;;5036511;28;20956;-65
2023/03/27 04:28:33;;;;;;;2.42;0.90;;;3.60;97.30;;;;;;5015034;28;20040;-65
2023/03/27 04:31:13;;;;;;;1.88;0.75;;;3.60;97.40;;;;;;5018489;28;20037;-65
2023/03/27 04:33:58;;;;;;;2.25;0.70;;;3.50;97.50;;;;;;5039383;28;20138;-64
2023/03/27 04:36:51;;;;;;;1.52;0.70;;;3.50;97.40;;;;;;5035064;28;20033;-65
2023/03/27 04:39:21;;;;;;;0.68;0.50;;;3.40;97.50;;;;;;5016081;28;20493;-65
2023/03/27 04:41:50;;;;;;;2.42;0.60;;;3.40;97.70;;;;;;5017323;28;20056;-65
2023/03/27 04:44:16;;;;;;;1.50;1.00;;;3.30;97.80;;;;;;5018562;28;20958;-64
2023/03/27 04:46:47;;;;;;;2.10;0.77;;;3.30;97.90;;;;;;5017521;28;20724;-65
2023/03/27 04:49:14;;;;;;;1.35;0.60;;;3.20;98.00;;;;;;5031728;28;20033;-65
2023/03/27 04:52:05;;;;;;;0.60;0.60;;;3.20;98.10;;;;;;5036234;28;20139;-65
2023/03/27 04:54:32;;;;;;;1.23;0.73;;;3.20;98.20;;;;;;5014606;28;20025;-65
2023/03/27 04:57:02;;;;;;;1.65;0.75;;;3.10;98.20;;;;;;5018131;28;20527;-64
2023/03/27 04:59:30;;;;;;;1.55;0.70;;;3.10;98.40;;;;;;5035257;28;20029;-64
2023/03/27 05:02:20;;;;;;;1.27;0.88;;;3.10;98.40;;;;;;4979528;28;20037;-64
2023/03/27 05:05:18;;;;;;;0.93;0.70;;;3.10;98.40;;;;;;5015585;28;20484;-64
2023/03/27 05:07:45;;;;;;;2.38;0.80;;;3.00;98.40;;;;;;5018299;28;20218;-64
2023/03/27 05:10:16;;;;;;;0.70;0.70;;;3.00;98.70;;;;;;5018178;28;20029;-65
2023/03/27 05:12:47;;;;;;;2.08;0.85;;;3.00;98.80;;;;;;5019571;28;20041;-65
2023/03/27 05:15:16;;;;;;;1.20;0.82;;;3.00;98.90;;;;;;5015838;28;20024;-65
2023/03/27 05:17:45;;;;;;;0.65;0.65;;;2.90;98.90;;;;;;5042136;28;20056;-65
2023/03/27 05:20:15;;;;;;;1.45;1.10;;;2.90;99.00;;;;;;5041622;28;20068;-64
2023/03/27 05:22:42;;;;;;;1.08;0.88;;;2.90;99.10;;;;;;5020665;28;20029;-65
2023/03/27 05:25:24;;;;;;;1.55;1.13;;;2.90;99.20;;;;;;5040377;28;20024;-65
2023/03/27 05:27:51;;;;;;;3.35;1.05;;;3.00;99.10;;;;;;5020535;28;20069;-64
2023/03/27 05:30:20;;;;;;;3.13;1.20;;;3.00;99.20;;;;;;5016504;28;20041;-65
2023/03/27 05:32:51;;;;;;;1.92;1.25;;;3.00;99.40;;;;;;5022995;28;20040;-65
2023/03/27 05:35:25;;;;;;;3.05;1.35;;;2.90;99.60;;;;;;5022383;28;20112;-64
2023/03/27 05:37:53;;;;;;;2.22;1.10;;;3.00;99.80;;;;;;5022719;28;20095;-64
2023/03/27 05:40:33;;;;;;;2.67;1.20;;;3.00;99.90;;;;;;5022837;28;20091;-64
2023/03/27 05:43:00;;;;;;;2.15;1.17;;;3.00;99.90;;;;;;5020024;28;20052;-65
2023/03/27 05:45:28;;;;;;;2.08;1.55;;;3.10;99.90;;;;;;5019546;28;20059;-65
2023/03/27 05:47:55;;;;;;;1.52;1.10;;;3.10;99.90;;;;;;5021221;28;20124;-65
2023/03/27 05:50:25;;;;;;;3.17;1.17;;;3.20;99.90;;;;;;5036982;28;20029;-65
2023/03/27 05:53:06;;;;;;;1.67;1.08;;;3.20;99.90;;;;;;5016379;28;20033;-63
2023/03/27 05:55:38;;;;;;;1.88;1.00;;;3.30;99.90;;;;;;5042616;28;20430;-66
2023/03/27 05:58:08;;;;;;;1.70;1.20;;;3.40;99.90;;;;;;5027200;28;20032;-65
2023/03/27 06:00:35;;;;;;;3.13;1.13;;;3.40;99.90;;;;;;5044694;28;20036;-65
2023/03/27 06:03:03;;;;;;;1.58;1.02;;;3.40;99.90;;;;;;5032731;28;20043;-65
2023/03/27 06:05:58;;;;;;;2.45;1.20;;;3.50;99.90;;;;;;5017223;28;20136;-65
2023/03/27 06:08:28;;;;;;;2.25;0.80;;;3.60;99.90;;;;;;5023544;28;20032;-65
2023/03/27 06:10:57;;;;;;;2.53;1.08;;;3.70;99.90;;;;;;5021000;28;20467;-65
2023/03/27 06:13:30;;;;;;;2.55;1.13;;;3.80;99.90;;;;;;5020265;28;20033;-66
2023/03/27 06:16:04;;;;;;;1.80;0.82;;;3.90;99.90;;;;;;5016837;28;20048;-66
2023/03/27 06:18:48;;;;;;;6.70;2.08;;;3.90;99.90;;;;;;5037285;28;20051;-65
2023/03/27 06:21:16;;;;;;;3.58;1.40;;;4.00;99.90;;;;;;5024338;28;20458;-66
2023/03/27 06:23:42;;;;;;;1.55;0.98;;;4.10;99.90;;;;;;5026348;28;20029;-65
2023/03/27 06:26:14;;;;;;;4.93;1.25;;;4.20;99.90;;;;;;5022803;28;20025;-65
2023/03/27 06:28:41;;;;;;;1.83;1.30;;;4.20;99.90;;;;;;5046764;28;20033;-66
2023/03/27 06:31:07;;;;;;;3.72;1.10;;;4.30;99.90;;;;;;5017945;28;20034;-66
2023/03/27 06:33:39;;;;;;;2.22;1.48;;;4.40;99.90;;;;;;5038785;28;20060;-66
2023/03/27 06:36:08;;;;;;;2.50;2.05;;;4.60;99.90;;;;;;5031468;28;20561;-66
2023/03/27 06:38:36;;;;;;;1.65;1.00;;;4.60;99.90;;;;;;5017028;28;20123;-66
2023/03/27 06:41:03;;;;;;;3.03;1.25;;;4.80;99.90;;;;;;5010060;28;20029;-67
2023/03/27 06:43:51;;;;;;;3.05;0.95;;;4.80;99.90;;;;;;5024216;28;20475;-66
2023/03/27 06:46:43;;;;;;;5.05;1.65;;;5.00;99.80;;;;;;5002225;28;20711;-66
2023/03/27 06:49:15;;;;;;;2.40;0.75;;;5.10;99.50;;;;;;5023442;28;20036;-66
2023/03/27 06:51:41;;;;;;;1.48;1.10;;;5.20;98.90;;;;;;5021908;28;20045;-66
2023/03/27 06:54:08;;;;;;;4.32;1.38;;;5.30;98.40;;;;;;5015094;28;20037;-66
2023/03/27 06:56:40;;;;;;;3.15;1.20;;;5.40;98.60;;;;;;5041788;28;20047;-66
2023/03/27 06:59:15;;;;;;;3.47;1.20;;;5.60;97.80;;;;;;5023678;28;20040;-66
2023/03/27 07:01:42;;;;;;;2.70;1.45;;;5.90;97.00;;;;;;5018714;28;20119;-66
2023/03/27 07:04:38;;;;;;;7.97;1.27;;;6.10;96.50;;;;;;5018240;28;20045;-67
2023/03/27 07:07:17;;;;;;;1.27;0.98;;;6.60;96.20;;;;;;5035242;28;20049;-66
2023/03/27 07:09:43;;;;;;;3.40;1.23;;;7.00;94.60;;;;;;5021896;28;20519;-66
2023/03/27 07:12:12;;;;;;;1.70;1.00;;;7.20;93.90;;;;;;5036537;28;20515;-65
2023/03/27 07:14:40;;;;;;;2.78;1.20;;;7.40;93.40;;;;;;5018930;28;20139;-66
2023/03/27 07:17:06;;;;;;;2.15;1.13;;;7.70;93.50;;;;;;5015942;28;20041;-65
2023/03/27 07:20:06;;;;;;;3.10;1.65;;;7.90;92.00;;;;;;5028191;28;20072;-66
2023/03/27 07:22:33;;;;;;;2.75;1.00;;;8.10;91.20;;;;;;5028348;28;20064;-64
2023/03/27 07:25:05;;;;;;;1.80;0.90;;;8.10;90.30;;;;;;5024655;28;20035;-66
2023/03/27 07:27:37;;;;;;;2.03;1.48;;;8.20;90.70;;;;;;5024720;28;20043;-66
2023/03/27 07:30:06;;;;;;;2.30;1.10;;;8.40;90.50;;;;;;5020067;28;20025;-66
2023/03/27 07:32:34;;;;;;;2.13;0.90;;;8.90;90.30;;;;;;5026031;28;20025;-66
2023/03/27 07:35:00;;;;;;;4.97;0.98;;;9.60;86.10;;;;;;5021496;28;20839;-66
2023/03/27 07:37:46;;;;;;;1.40;0.70;;;10.10;84.90;;;;;;5033314;28;20037;-67
2023/03/27 07:40:32;;;;;;;3.33;1.02;;;10.10;78.60;;;;;;5042894;28;20075;-67
2023/03/27 07:43:18;;;;;;;2.75;0.98;;;10.10;80.10;;;;;;4989960;28;20116;-67
2023/03/27 07:45:44;;;;;;;4.00;1.25;;;10.10;78.90;;;;;;5036523;28;20178;-66
2023/03/27 07:48:14;;;;;;;3.13;0.75;;;10.00;78.20;;;;;;5018535;28;20048;-66
2023/03/27 07:50:41;;;;;;;2.10;0.80;;;10.10;77.60;;;;;;5018424;28;20905;-66
2023/03/27 07:53:11;;;;;;;8.27;3.65;;;10.20;77.20;;;;;;5022419;28;20127;-67
2023/03/27 07:55:41;;;;;;;4.38;2.20;;;10.10;77.00;;;;;;5042150;28;20025;-67
2023/03/27 07:58:07;;;;;;;10.05;4.47;;;10.10;77.80;;;;;;5021048;28;20696;-67
2023/03/27 08:00:35;;;;;;;9.32;5.20;;;10.20;77.40;;;;;;5020645;28;20025;-65
2023/03/27 08:03:16;;;;;;;3.75;2.00;;;10.30;76.90;;;;;;5018331;28;20300;-67
2023/03/27 08:05:51;;;;;;;2.70;1.27;;;10.30;75.50;;;;;;5016599;28;20037;-66
2023/03/27 08:08:18;;;;;;;2.70;1.58;;;10.30;75.90;;;;;;5021567;28;20071;-66
2023/03/27 08:10:58;;;;;;;5.43;1.10;;;10.20;75.90;;;;;;5027941;28;20449;-66
2023/03/27 08:13:27;;;;;;;3.38;1.30;;;10.00;75.70;;;;;;5030293;28;20515;-66
2023/03/27 08:16:13;;;;;;;3.25;0.70;;;9.80;75.00;;;;;;5022182;28;20029;-66
2023/03/27 08:18:41;;;;;;;3.85;1.50;;;9.50;76.60;;;;;;5023819;28;20025;-66
2023/03/27 08:21:09;;;;;;;1.33;0.90;;;9.30;76.30;;;;;;5019774;28;20036;-66
2023/03/27 08:23:37;;;;;;;1.63;1.10;;;9.30;78.60;;;;;;5021405;28;20029;-66
2023/03/27 08:26:21;;;;;;;2.90;0.80;;;9.60;79.30;;;;;;5029669;28;20052;-66
2023/03/27 08:28:55;;;;;;;2.97;1.40;;;9.80;73.30;;;;;;5022685;28;20025;-66
2023/03/27 08:31:26;;;;;;;6.60;2.72;;;9.70;72.70;;;;;;5021293;28;20067;-66
2023/03/27 08:33:57;;;;;;;2.15;1.23;;;9.60;73.10;;;;;;5022835;28;20533;-66
2023/03/27 08:36:26;;;;;;;6.15;1.00;;;9.60;74.60;;;;;;5019920;28;20059;-66
2023/03/27 08:38:54;;;;;;;5.78;2.65;;;9.60;72.00;;;;;;5018317;28;20397;-66
2023/03/27 08:41:47;;;;;;;19.60;8.00;;;9.70;72.60;;;;;;5023030;28;20049;-66
2023/03/27 08:44:23;;;;;;;20.55;9.30;;;9.90;72.30;;;;;;5021266;28;20037;-66
2023/03/27 08:46:55;;;;;;;7.35;3.20;;;9.80;72.30;;;;;;5024877;28;20036;-67
2023/03/27 08:49:27;;;;;;;14.85;5.25;;;9.80;73.10;;;;;;5024578;28;20029;-67
2023/03/27 08:52:29;;;;;;;9.98;2.50;;;9.70;73.90;;;;;;5028509;28;20076;-67
2023/03/27 08:55:05;;;;;;;1.33;1.00;;;9.60;72.70;;;;;;5026839;28;20516;-68
2023/03/27 08:57:45;;;;;;;3.90;1.90;;;9.80;71.80;;;;;;5022408;28;20956;-67
2023/03/27 09:00:31;;;;;;;3.20;1.13;;;10.30;73.90;;;;;;5031214;28;20033;-67
2023/03/27 09:03:20;;;;;;;1.75;0.80;;;10.70;67.70;;;;;;5042875;28;20097;-67
2023/03/27 09:05:57;;;;;;;1.50;0.75;;;11.00;68.70;;;;;;5028747;28;20130;-67
2023/03/27 09:08:38;;;;;;;3.80;1.65;;;11.40;66.50;;;;;;5024447;28;20037;-67
2023/03/27 09:11:11;;;;;;;3.85;1.40;;;11.60;64.50;;;;;;5025328;28;20024;-67
2023/03/27 09:13:51;;;;;;;2.53;1.10;;;11.60;65.70;;;;;;5044748;28;20029;-68
2023/03/27 09:16:47;;;;;;;2.42;0.93;;;11.70;67.00;;;;;;5032764;28;20039;-67
2023/03/27 09:19:23;;;;;;;2.95;0.73;;;11.60;63.70;;;;;;5037952;28;20035;-67
2023/03/27 09:22:01;;;;;;;3.60;1.20;;;11.40;63.70;;;;;;5030035;28;20115;-67
2023/03/27 09:24:47;;;;;;;2.83;1.40;;;11.20;63.90;;;;;;5024305;28;20037;-67
2023/03/27 09:27:32;;;;;;;2.65;0.80;;;11.30;63.70;;;;;;5032257;28;20124;-67
2023/03/27 09:30:09;;;;;;;1.15;0.80;;;11.20;64.20;;;;;;5030642;28;20493;-67
2023/03/27 09:32:48;;;;;;;1.42;0.77;;;11.00;63.80;;;;;;5026661;28;20392;-67
2023/03/27 09:35:16;;;;;;;4.88;1.00;;;10.80;64.20;;;;;;5026568;28;20087;-67
2023/03/27 09:37:43;;;;;;;2.55;1.20;;;10.70;65.40;;;;;;5026177;28;20662;-67
2023/03/27 09:40:42;;;;;;;4.78;0.90;;;10.60;64.00;;;;;;5022020;28;20044;-67
2023/03/27 09:43:17;;;;;;;0.90;0.60;;;10.50;65.30;;;;;;5025304;28;20048;-67
2023/03/27 09:45:45;;;;;;;3.20;0.90;;;10.60;66.90;;;;;;5026684;28;20033;-67
2023/03/27 09:48:37;;;;;;;1.52;0.65;;;10.80;64.90;;;;;;5028492;28;20036;-67
2023/03/27 09:51:36;;;;;;;4.43;0.65;;;10.80;65.50;;;;;;5042044;28;20025;-67
2023/03/27 09:54:03;;;;;;;3.38;1.30;;;10.60;61.60;;;;;;5025754;28;20029;-67
2023/03/27 09:56:42;;;;;;;2.60;0.73;;;10.50;64.50;;;;;;5029007;28;20497;-67
2023/03/27 09:59:31;;;;;;;3.42;0.90;;;11.00;64.00;;;;;;5045542;28;21016;-67
2023/03/27 10:02:20;;;;;;;0.73;0.60;;;11.60;63.10;;;;;;5026437;28;20052;-67
2023/03/27 10:05:04;;;;;;;1.42;0.55;;;11.80;57.10;;;;;;5040002;28;20048;-67
2023/03/27 10:07:32;;;;;;;2.55;0.70;;;11.50;59.20;;;;;;5021073;28;20492;-67
2023/03/27 10:10:12;;;;;;;1.40;0.50;;;11.30;59.60;;;;;;5043794;28;20078;-67
2023/03/27 10:13:00;;;;;;;2.90;0.45;;;11.00;61.20;;;;;;5043747;28;20039;-67
2023/03/27 10:15:38;;;;;;;4.22;1.00;;;11.60;60.20;;;;;;5044131;28;20068;-67
2023/03/27 10:18:26;;;;;;;2.53;1.10;;;12.30;60.00;;;;;;5027830;28;20721;-67
2023/03/27 10:21:05;;;;;;;1.88;0.70;;;13.30;58.40;;;;;;5038915;28;20029;-67
2023/03/27 10:23:48;;;;;;;2.33;0.70;;;13.80;55.30;;;;;;5032294;28;20500;-66
2023/03/27 10:26:36;;;;;;;4.43;0.60;;;14.30;54.10;;;;;;5015754;28;20041;-67
2023/03/27 10:29:22;;;;;;;3.92;0.77;;;15.30;51.20;;;;;;5022785;28;20025;-67
2023/03/27 10:31:57;;;;;;;3.85;0.95;;;16.10;50.70;;;;;;5022864;28;20032;-67
2023/03/27 10:34:56;;;;;;;5.32;0.80;;;16.50;47.90;;;;;;5026942;28;20101;-68
2023/03/27 10:37:28;;;;;;;2.95;0.75;;;15.90;47.20;;;;;;5039479;28;20517;-67
2023/03/27 10:40:18;;;;;;;4.18;0.95;;;15.50;50.80;;;;;;5036170;28;20087;-67
2023/03/27 10:42:48;;;;;;;2.58;0.82;;;15.70;48.60;;;;;;5025113;28;20037;-67
2023/03/27 10:45:19;;;;;;;5.68;0.77;;;14.70;48.80;;;;;;5027673;28;20033;-67
2023/03/27 10:47:55;;;;;;;5.35;0.98;;;14.00;49.30;;;;;;5025958;28;20040;-67
2023/03/27 10:50:52;;;;;;;3.38;0.80;;;13.30;50.60;;;;;;5031316;28;20112;-67
2023/03/27 10:53:47;;;;;;;5.10;0.60;;;12.70;51.60;;;;;;5017470;28;20029;-67
2023/03/27 10:56:53;;;;;;;2.55;0.70;;;12.50;55.50;;;;;;5022892;28;20025;-67
2023/03/27 10:59:37;;;;;;;3.38;0.50;;;13.10;53.00;;;;;;4971857;28;20593;-67
2023/03/27 11:02:13;;;;;;;3.28;0.70;;;14.10;52.40;;;;;;5021876;28;20028;-67
2023/03/27 11:04:50;;;;;;;3.10;0.70;;;14.80;50.80;;;;;;5014318;28;20033;-67
2023/03/27 11:07:36;;;;;;;;;;;14.90;49.00;;;;;;5028320;28;20037;-67
2023/03/27 11:10:13;;;;;;;4.05;0.73;;;14.40;47.60;;;;;;5020427;28;19943;-67
2023/03/27 11:12:46;;;;;;;3.22;0.60;;;13.70;45.90;;;;;;5020594;28;20052;-67
2023/03/27 11:15:18;;;;;;;3.85;0.50;;;13.00;49.80;;;;;;5048210;28;20045;-68
2023/03/27 11:18:01;;;;;;;3.65;0.70;;;12.50;52.00;;;;;;5022768;28;20123;-68
2023/03/27 11:20:58;;;;;;;3.33;0.88;;;12.10;56.60;;;;;;5008446;28;20032;-67
2023/03/27 11:23:57;;;;;;;3.65;0.73;;;12.20;56.70;;;;;;5024339;28;20769;-67
2023/03/27 11:27:04;;;;;;;0.93;0.60;;;12.30;53.70;;;;;;5020972;28;20044;-68
2023/03/27 11:29:46;;;;;;;4.82;0.85;;;12.50;55.00;;;;;;5023875;28;20029;-67
2023/03/27 11:32:36;;;;;;;1.67;0.55;;;12.50;52.70;;;;;;5015938;28;20060;-67
2023/03/27 11:35:16;;;;;;;4.00;0.50;;;12.70;54.50;;;;;;5025612;28;20037;-68
2023/03/27 11:38:23;;;;;;;1.30;0.50;;;13.00;54.00;;;;;;5037696;28;20036;-68
2023/03/27 11:40:51;;;;;;;3.40;0.50;;;13.00;50.80;;;;;;5037255;28;20454;-69
2023/03/27 11:43:19;;;;;;;2.33;0.47;;;12.90;50.00;;;;;;5035716;28;20124;-67
2023/03/27 11:46:07;;;;;;;2.88;0.52;;;12.80;52.20;;;;;;5034513;28;20580;-67
2023/03/27 11:48:50;;;;;;;0.75;0.32;;;12.60;53.50;;;;;;5031775;28;20033;-67
2023/03/27 11:51:56;;;;;;;1.65;0.68;;;12.60;54.20;;;;;;5036599;28;20033;-67
2023/03/27 11:54:24;;;;;;;2.85;0.60;;;12.50;55.30;;;;;;5035877;28;20025;-67
2023/03/27 11:57:01;;;;;;;2.40;0.70;;;12.40;54.90;;;;;;5034454;28;20045;-67
2023/03/27 11:59:58;;;;;;;0.93;0.50;;;12.10;55.80;;;;;;5028896;28;20766;-66
2023/03/27 12:02:33;;;;;;;1.83;0.60;;;11.80;56.50;;;;;;5038116;28;20035;-67
2023/03/27 12:05:17;;;;;;;5.03;0.70;;;11.70;55.80;;;;;;5026486;28;20378;-67
2023/03/27 12:07:48;;;;;;;1.45;0.57;;;11.70;55.60;;;;;;5031116;28;20039;-67
2023/03/27 12:10:26;;;;;;;3.22;0.80;;;11.60;56.70;;;;;;5040858;28;20032;-67
2023/03/27 12:13:23;;;;;;;2.67;0.70;;;11.50;56.40;;;;;;5027556;28;20543;-67
2023/03/27 12:16:20;;;;;;;2.03;0.68;;;11.50;56.30;;;;;;5022923;28;20049;-67
2023/03/27 12:19:19;;;;;;;3.78;0.95;;;11.50;55.60;;;;;;5035982;28;20025;-67
2023/03/27 12:22:16;;;;;;;3.35;0.77;;;11.50;57.20;;;;;;5039394;28;20503;-67
2023/03/27 12:24:53;;;;;;;3.00;1.02;;;11.40;56.20;;;;;;5030664;28;20055;-67
2023/03/27 12:28:25;;;;;;;1.60;0.63;;;11.20;54.40;;;;;;5038816;28;20540;-67
2023/03/27 12:31:22;;;;;;;2.70;0.80;;;10.90;55.30;;;;;;5037418;28;20888;-67
2023/03/27 12:34:19;;;;;;;7.70;1.83;;;10.60;59.00;;;;;;5041186;28;20029;-67
2023/03/27 12:36:47;;;;;;;4.22;1.15;;;10.20;67.00;;;;;;5038410;28;20041;-67
2023/03/27 12:39:24;;;;;;;3.00;1.00;;;9.70;70.10;;;;;;5038716;28;20384;-67
2023/03/27 12:41:52;;;;;;;2.75;1.00;;;9.40;73.00;;;;;;5034215;28;20354;-67
2023/03/27 12:45:04;;;;;;;2.28;1.00;;;9.30;77.60;;;;;;5030670;28;20043;-67
2023/03/27 12:47:30;;;;;;;3.90;1.08;;;9.00;81.90;;;;;;5034197;28;20564;-67
2023/03/27 12:50:18;;;;;;;6.55;0.80;;;8.70;84.90;;;;;;5033683;28;20136;-67
2023/03/27 12:52:45;;;;;;;1.20;0.90;;;8.70;88.00;;;;;;5029674;28;20021;-67
2023/03/27 12:55:17;;;;;;;1.55;0.73;;;8.60;87.90;;;;;;5036464;28;20036;-67
2023/03/27 12:58:11;;;;;;;3.05;0.60;;;8.80;89.60;;;;;;5010975;28;20030;-67
2023/03/27 13:00:40;;;;;;;3.38;1.00;;;8.80;90.00;;;;;;5031778;28;20040;-67
2023/03/27 13:03:26;;;;;;;1.95;0.85;;;9.00;89.80;;;;;;5022259;28;20025;-67
2023/03/27 13:05:58;;;;;;;2.40;0.85;;;9.10;86.60;;;;;;5031792;28;20053;-67
2023/03/27 13:09:08;;;;;;;1.27;0.60;;;9.30;84.70;;;;;;5032937;28;20033;-67
2023/03/27 13:12:03;;;;;;;2.20;0.70;;;9.50;83.50;;;;;;5031191;28;20036;-67
2023/03/27 13:14:47;;;;;;;3.50;0.65;;;9.90;84.80;;;;;;5036332;28;20021;-67
2023/03/27 13:17:44;;;;;;;3.00;0.55;;;10.10;83.00;;;;;;5035489;28;20031;-68
2023/03/27 13:20:33;;;;;;;1.63;0.60;;;10.10;77.00;;;;;;5037243;28;20087;-68
2023/03/27 13:23:07;;;;;;;1.17;0.60;;;10.10;81.20;;;;;;5031559;28;20044;-67
2023/03/27 13:26:00;;;;;;;1.55;0.68;;;10.00;76.60;;;;;;5034844;28;20116;-68
2023/03/27 13:28:36;;;;;;;4.72;0.88;;;9.90;77.50;;;;;;5035399;28;20148;-67
2023/03/27 13:31:10;;;;;;;2.72;0.77;;;9.90;78.20;;;;;;5029713;28;20025;-68
2023/03/27 13:34:15;;;;;;;0.93;0.57;;;10.00;77.90;;;;;;5023770;28;20022;-67
2023/03/27 13:36:47;;;;;;;3.47;0.68;;;10.10;76.80;;;;;;5038251;28;20033;-69
2023/03/27 13:39:23;;;;;;;3.33;0.88;;;10.20;72.50;;;;;;5036438;28;20074;-68
2023/03/27 13:42:04;;;;;;;2.08;0.43;;;10.10;72.70;;;;;;5034865;28;20721;-68
2023/03/27 13:45:30;;;;;;;0.88;0.40;;;9.70;74.10;;;;;;5035265;28;20389;-66
2023/03/27 13:48:52;;;;;;;0.30;0.30;;;9.00;73.60;;;;;;5005242;28;20049;-66